Time;durP1;ratioP1;P1;durP2;ratioP2;P2;SDS_P1;SDS_P2;PMS_P1;PMS_P2;Temp;Humidity;BMP_temperature;BMP_pressure;BME280_temperature;BME280_humidity;BME280_pressure;Samples;Min_cycle;Max_cycle;Signal;HPM_P1;HPM_P2
2021/12/12 00:00:47;;;;;;;45.72;20.10;;;;;;;;;;5043750;28;20037;-76
2021/12/12 00:03:20;;;;;;;46.80;20.08;;;;;;;;;;5038998;28;20033;-76
2021/12/12 00:05:52;;;;;;;40.33;20.02;;;;;;;;;;5046388;28;20032;-75
2021/12/12 00:08:20;;;;;;;46.83;19.65;;;;;;;;;;5050677;28;20092;-76
2021/12/12 00:10:48;;;;;;;53.85;19.73;;;;;;;;;;5045264;28;20116;-77
2021/12/12 00:13:20;;;;;;;43.90;21.48;;;;;;;;;;5045563;28;20067;-76
2021/12/12 00:15:46;;;;;;;44.47;20.05;;;;;;;;;;5045073;28;20484;-75
2021/12/12 00:18:12;;;;;;;42.10;20.98;;;;;;;;;;5046242;28;20480;-76
2021/12/12 00:20:39;;;;;;;43.10;19.17;;;;;;;;;;5041346;28;20037;-76
2021/12/12 00:23:05;;;;;;;32.88;16.80;;;;;;;;;;5044335;28;20025;-76
2021/12/12 00:25:35;;;;;;;46.22;18.48;;;;;;;;;;5034389;28;20030;-76
2021/12/12 00:28:01;;;;;;;35.88;18.95;;;;;;;;;;5042579;28;20395;-77
2021/12/12 00:30:28;;;;;;;43.72;18.52;;;;;;;;;;5038944;28;20044;-76
2021/12/12 00:32:54;;;;;;;45.90;19.35;;;;;;;;;;5039995;28;20516;-76
2021/12/12 00:35:20;;;;;;;44.38;18.60;;;;;;;;;;5037690;28;20072;-75
2021/12/12 00:37:48;;;;;;;40.30;18.45;;;;;;;;;;5028340;28;20025;-76
2021/12/12 00:40:30;;;;;;;47.03;20.00;;;;;;;;;;5048393;28;20076;-76
2021/12/12 00:42:58;;;;;;;43.05;19.58;;;;;;;;;;5047349;28;20505;-76
2021/12/12 00:45:24;;;;;;;42.05;19.05;;;;;;;;;;5045066;28;20029;-76
2021/12/12 00:47:50;;;;;;;44.00;19.08;;;;;;;;;;5047249;28;20364;-76
2021/12/12 00:50:33;;;;;;;52.90;20.13;;;;;;;;;;5049483;28;20055;-75
2021/12/12 00:52:59;;;;;;;38.80;19.10;;;;;;;;;;5033258;28;20129;-75
2021/12/12 00:55:26;;;;;;;52.60;19.75;;;;;;;;;;5044991;28;20037;-75
2021/12/12 00:57:53;;;;;;;58.20;20.17;;;;;;;;;;5042892;28;20056;-74
2021/12/12 01:00:29;;;;;;;50.22;20.88;;;;;;;;;;5044834;28;20074;-74
2021/12/12 01:02:56;;;;;;;57.42;20.58;;;;;;;;;;5042931;28;20041;-75
2021/12/12 01:05:26;;;;;;;40.03;20.48;;;;;;;;;;5047081;28;20088;-75
2021/12/12 01:07:52;;;;;;;45.25;21.15;;;;;;;;;;5041312;28;20041;-76
2021/12/12 01:10:34;;;;;;;42.15;20.95;;;;;;;;;;5040593;28;20353;-75
2021/12/12 01:13:02;;;;;;;;;;;;;;;;;;5042981;28;20068;-74
2021/12/12 01:15:37;;;;;;;46.42;20.27;;;;;;;;;;5052333;28;19995;-74
2021/12/12 01:18:06;;;;;;;45.95;20.67;;;;;;;;;;5041799;28;20090;-74
2021/12/12 01:20:37;;;;;;;42.38;19.10;;;;;;;;;;5035155;28;20025;-75
2021/12/12 01:23:15;;;;;;;44.17;20.85;;;;;;;;;;5044661;28;20025;-73
2021/12/12 01:25:44;;;;;;;48.45;19.95;;;;;;;;;;5049332;28;20021;-75
2021/12/12 01:28:11;;;;;;;46.25;21.08;;;;;;;;;;5026343;28;20030;-75
2021/12/12 01:30:37;;;;;;;50.95;21.83;;;;;;;;;;5036703;28;20037;-75
2021/12/12 01:33:03;;;;;;;46.58;23.05;;;;;;;;;;5025672;28;20055;-76
2021/12/12 01:35:30;;;;;;;54.20;21.95;;;;;;;;;;5039422;28;20029;-76
2021/12/12 01:40:47;;;;;;;45.80;21.42;;;;;;;;;;5042398;28;20075;-75
2021/12/12 01:43:24;;;;;;;47.65;21.13;;;;;;;;;;5048696;28;20040;-76
2021/12/12 01:45:58;;;;;;;55.47;22.10;;;;;;;;;;5042918;28;20017;-76
2021/12/12 01:48:50;;;;;;;44.35;19.92;;;;;;;;;;5028078;28;20029;-75
2021/12/12 01:51:17;;;;;;;46.63;19.73;;;;;;;;;;5006682;28;20040;-75
2021/12/12 01:53:46;;;;;;;43.00;19.67;;;;;;;;;;5042829;28;20032;-75
2021/12/12 01:56:49;;;;;;;43.97;20.33;;;;;;;;;;5041581;28;20053;-75
2021/12/12 01:59:16;;;;;;;50.30;21.60;;;;;;;;;;5002601;28;20048;-74
2021/12/12 02:01:58;;;;;;;44.45;20.02;;;;;;;;;;5031909;28;20128;-74
2021/12/12 02:04:26;;;;;;;46.05;20.92;;;;;;;;;;5044605;28;20029;-74
2021/12/12 02:06:53;;;;;;;51.88;21.50;;;;;;;;;;5038715;28;20021;-75
2021/12/12 02:09:20;;;;;;;54.00;21.40;;;;;;;;;;5041410;28;20111;-74
2021/12/12 02:11:47;;;;;;;55.13;22.38;;;;;;;;;;5047982;28;20036;-73
2021/12/12 02:14:15;;;;;;;54.60;22.23;;;;;;;;;;5045789;28;20132;-74
2021/12/12 02:16:47;;;;;;;53.38;21.85;;;;;;;;;;5039636;28;20036;-74
2021/12/12 02:19:14;;;;;;;;;;;4.90;99.90;;;;;;5051235;28;20033;-74
2021/12/12 02:22:09;;;;;;;55.95;21.90;;;;;;;;;;5044721;28;20003;-74
2021/12/12 02:35:24;;;;;;;56.08;22.13;;;;;;;;;;5040368;28;20074;-74
2021/12/12 02:37:51;;;;;;;52.53;21.13;;;;;;;;;;5050870;28;20039;-74
2021/12/12 02:40:20;;;;;;;46.30;20.35;;;;;;;;;;5045099;28;20029;-74
2021/12/12 02:42:46;;;;;;;53.28;20.55;;;;;;;;;;5048164;28;20432;-74
2021/12/12 02:45:15;;;;;;;49.80;21.40;;;;;;;;;;5027340;28;20033;-74
2021/12/12 02:47:43;;;;;;;36.20;18.35;;;;;;;;;;5042890;28;20471;-74
2021/12/12 02:50:14;;;;;;;52.47;21.92;;;;;;;;;;5041491;28;20025;-74
2021/12/12 02:52:47;;;;;;;49.45;19.77;;;;;;;;;;5047823;28;20086;-74
2021/12/12 02:55:19;;;;;;;53.50;19.77;;;;;;;;;;5042380;28;20017;-75
2021/12/12 02:57:45;;;;;;;42.72;20.20;;;;;;;;;;5047241;28;20035;-75
2021/12/12 03:00:14;;;;;;;49.33;20.45;;;;;;;;;;5041919;28;20051;-74
2021/12/12 03:02:45;;;;;;;42.90;21.15;;;;;;;;;;5038111;28;20033;-75
2021/12/12 03:05:14;;;;;;;49.60;20.37;;;;;;;;;;5049957;28;20032;-75
2021/12/12 03:07:40;;;;;;;45.20;20.13;;;;;;;;;;5048671;28;20303;-74
2021/12/12 03:10:08;;;;;;;50.25;20.63;;;;;;;;;;5053248;28;20029;-74
2021/12/12 03:12:35;;;;;;;47.65;20.33;;;;;;;;;;5046255;28;20390;-74
2021/12/12 03:15:05;;;;;;;50.38;19.25;;;;;;;;;;5037184;28;20033;-73
2021/12/12 03:17:31;;;;;;;37.97;18.02;;;;;;;;;;5042519;28;20037;-73
2021/12/12 03:20:01;;;;;;;52.00;19.40;;;;;;;;;;5046873;28;20042;-73
2021/12/12 03:22:27;;;;;;;43.25;19.95;;;;;;;;;;5047511;28;20048;-74
2021/12/12 03:24:54;;;;;;;39.58;17.50;;;;;;;;;;5056514;28;20100;-74
2021/12/12 03:27:20;;;;;;;40.90;18.25;;;;;;;;;;5047377;28;20106;-74
2021/12/12 03:29:48;;;;;;;36.42;18.42;;;;;;;;;;5047649;28;20045;-73
2021/12/12 03:32:16;;;;;;;38.88;17.88;;;;;;;;;;5043338;28;20068;-73
2021/12/12 03:34:45;;;;;;;37.47;16.48;;;;;;;;;;5046243;28;20036;-75
2021/12/12 03:37:13;;;;;;;35.88;17.08;;;;;;;;;;5036738;28;20057;-75
2021/12/12 03:39:40;;;;;;;47.80;17.83;;;;;;;;;;5044564;28;20087;-75
2021/12/12 03:42:09;;;;;;;36.92;16.05;;;;;;;;;;5048554;28;20033;-75
2021/12/12 03:44:38;;;;;;;35.17;16.02;;;;;;;;;;5045746;28;20083;-75
2021/12/12 03:47:07;;;;;;;36.42;14.32;;;;;;;;;;5046242;28;20063;-74
2021/12/12 03:49:34;;;;;;;35.45;15.52;;;;;;;;;;5044136;28;20395;-75
2021/12/12 03:52:01;;;;;;;32.90;14.25;;;;;;;;;;5040883;28;20455;-75
2021/12/12 03:54:27;;;;;;;28.63;15.50;;;;;;;;;;5057499;28;20033;-75
2021/12/12 03:56:53;;;;;;;23.70;14.02;;;;;;;;;;5048139;28;20078;-74
2021/12/12 03:59:19;;;;;;;34.20;14.82;;;;;;;;;;5035383;28;20133;-75
2021/12/12 04:01:48;;;;;;;23.40;12.82;;;;;;;;;;5030192;28;20088;-75
2021/12/12 04:04:23;;;;;;;27.88;13.68;;;;;;;;;;5047666;28;20068;-75
2021/12/12 04:06:50;;;;;;;26.08;13.95;;;;;;;;;;5043989;28;20024;-75
2021/12/12 04:09:16;;;;;;;25.95;12.00;;;;;;;;;;5050698;28;20067;-74
2021/12/12 04:11:47;;;;;;;28.48;13.40;;;;;;;;;;5044036;28;20135;-75
2021/12/12 04:14:14;;;;;;;27.63;12.65;;;;;;;;;;5041520;28;20070;-75
2021/12/12 04:16:41;;;;;;;26.48;12.43;;;;;;;;;;5047203;28;20025;-74
2021/12/12 04:19:07;;;;;;;25.23;12.65;;;;;;;;;;5045778;28;20021;-75
2021/12/12 04:21:34;;;;;;;20.05;12.27;;;;;;;;;;5043983;28;20139;-74
2021/12/12 04:24:00;;;;;;;24.02;12.30;;;;;;;;;;5039741;28;20034;-74
2021/12/12 04:26:28;;;;;;;28.48;12.52;;;;;;;;;;5052974;28;20013;-74
2021/12/12 04:28:57;;;;;;;18.13;11.07;;;;;;;;;;5042587;28;20033;-75
2021/12/12 04:31:23;;;;;;;21.35;11.20;;;;;;;;;;5051075;28;20036;-74
2021/12/12 04:33:50;;;;;;;20.10;11.18;;;;;;;;;;5048454;28;20033;-74
2021/12/12 04:36:16;;;;;;;18.00;11.07;;;;;;;;;;5038653;28;20037;-74
2021/12/12 04:38:42;;;;;;;21.13;10.15;;;;;;;;;;5046269;28;20033;-75
2021/12/12 04:41:09;;;;;;;19.48;11.05;;;;;;;;;;5021861;28;20089;-74
2021/12/12 04:43:35;;;;;;;17.10;10.93;;;;;;;;;;5037947;28;20115;-74
2021/12/12 04:46:09;;;;;;;15.50;10.38;;;;;;;;;;5042469;28;20972;-73
2021/12/12 04:51:47;;;;;;;16.25;10.88;;;;;;;;;;5046506;28;20055;-74
2021/12/12 04:54:22;;;;;;;18.00;11.05;;;;;;;;;;5055038;28;20039;-74
2021/12/12 04:57:03;;;;;;;17.08;10.50;;;;;;;;;;5041151;28;20037;-74
2021/12/12 04:59:31;;;;;;;18.23;10.50;;;;;;;;;;5050432;28;20039;-74
2021/12/12 05:01:57;;;;;;;15.95;10.23;;;;;;;;;;5045313;28;20037;-75
2021/12/12 05:04:30;;;;;;;14.20;10.20;;;;;;;;;;5047053;28;20060;-74
2021/12/12 05:06:56;;;;;;;;;;;;;;;;;;5042176;28;20082;-74
2021/12/12 05:09:28;;;;;;;20.35;11.15;;;;;;;;;;5042272;28;19916;-74
2021/12/12 05:12:18;;;;;;;19.98;11.57;;;5.90;99.90;;;;;;5049754;28;20503;-74
2021/12/12 05:14:49;;;;;;;14.68;11.25;;;;;;;;;;5040758;28;20029;-74
2021/12/12 05:17:21;;;;;;;21.75;12.80;;;;;;;;;;5036853;28;20041;-74
2021/12/12 05:19:50;;;;;;;24.88;13.23;;;;;;;;;;5043269;28;20025;-73
2021/12/12 05:22:18;;;;;;;19.10;13.55;;;;;;;;;;5050425;28;20025;-74
2021/12/12 05:24:47;;;;;;;23.02;13.27;;;;;;;;;;5044585;28;20192;-74
2021/12/12 05:27:14;;;;;;;23.05;13.80;;;;;;;;;;5045877;28;20021;-74
2021/12/12 05:29:50;;;;;;;23.88;14.25;;;;;;;;;;5044094;28;20029;-74
2021/12/12 05:32:16;;;;;;;27.02;15.48;;;;;;;;;;5044731;28;20036;-74
2021/12/12 05:34:48;;;;;;;23.83;15.57;;;;;;;;;;5045121;28;20041;-75
2021/12/12 05:37:14;;;;;;;24.58;14.57;;;;;;;;;;5039367;28;20029;-74
2021/12/12 05:39:40;;;;;;;28.73;15.55;;;;;;;;;;5037696;28;20808;-74
2021/12/12 05:42:06;;;;;;;27.52;18.02;;;;;;;;;;5043194;28;20029;-74
2021/12/12 05:44:33;;;;;;;30.30;18.40;;;;;;;;;;5051074;28;20112;-74
2021/12/12 05:47:05;;;;;;;39.10;16.65;;;;;;;;;;5042820;28;20029;-74
2021/12/12 05:49:32;;;;;;;37.90;18.10;;;;;;;;;;5042305;28;20032;-74
2021/12/12 05:51:58;;;;;;;31.58;17.20;;;;;;;;;;5043938;28;20037;-74
2021/12/12 05:54:25;;;;;;;29.90;18.50;;;;;;;;;;5048257;28;20037;-75
2021/12/12 05:56:52;;;;;;;28.23;17.15;;;;;;;;;;5043806;28;20036;-74
2021/12/12 05:59:20;;;;;;;26.80;16.98;;;;;;;;;;5045380;28;20037;-75
2021/12/12 06:01:46;;;;;;;28.52;17.00;;;;;;;;;;5021369;28;20037;-74
2021/12/12 06:04:12;;;;;;;30.40;17.15;;;;;;;;;;5023697;28;20081;-74
2021/12/12 06:06:41;;;;;;;29.20;17.77;;;;;;;;;;5039055;28;20038;-74
2021/12/12 06:09:08;;;;;;;29.20;19.58;;;;;;;;;;5041076;28;20021;-74
2021/12/12 06:11:36;;;;;;;34.80;19.70;;;;;;;;;;5046032;28;20040;-74
2021/12/12 06:14:02;;;;;;;33.95;19.95;;;;;;;;;;5038976;28;20090;-74
2021/12/12 06:16:29;;;;;;;34.65;18.75;;;;;;;;;;5048160;28;20093;-74
2021/12/12 06:19:01;;;;;;;32.53;19.10;;;;;;;;;;5043235;28;20094;-74
2021/12/12 06:21:27;;;;;;;34.53;19.88;;;;;;;;;;5054103;28;20495;-75
2021/12/12 06:23:54;;;;;;;35.95;20.30;;;;;;;;;;5044253;28;20029;-74
2021/12/12 06:26:20;;;;;;;41.22;19.73;;;;;;;;;;5039259;28;20029;-74
2021/12/12 06:28:47;;;;;;;39.50;19.95;;;;;;;;;;5045398;28;20034;-74
2021/12/12 06:31:13;;;;;;;37.38;20.17;;;;;;;;;;5046505;28;20024;-74
2021/12/12 06:33:40;;;;;;;35.13;20.50;;;;;;;;;;5041549;28;20154;-75
2021/12/12 06:36:08;;;;;;;39.95;21.55;;;;;;;;;;5050208;28;20029;-75
2021/12/12 06:38:35;;;;;;;33.15;20.23;;;;;;;;;;5041330;28;20075;-75
2021/12/12 06:41:01;;;;;;;35.03;21.23;;;;;;;;;;5042845;28;20033;-74
2021/12/12 06:43:28;;;;;;;38.13;19.98;;;;;;;;;;5043453;28;20028;-73
2021/12/12 06:45:54;;;;;;;35.55;20.00;;;;;;;;;;5029568;28;20079;-74
2021/12/12 06:48:20;;;;;;;35.33;19.83;;;;;;;;;;5041234;28;20411;-74
2021/12/12 06:50:47;;;;;;;35.10;19.05;;;;;;;;;;5028472;28;20017;-74
2021/12/12 06:53:14;;;;;;;35.05;20.17;;;;;;;;;;5049860;28;20032;-74
2021/12/12 06:55:44;;;;;;;111.63;62.60;;;;;;;;;;5037555;28;20035;-75
2021/12/12 06:58:10;;;;;;;39.10;21.42;;;;;;;;;;5040578;28;20029;-75
2021/12/12 07:00:36;;;;;;;34.55;18.75;;;;;;;;;;5048463;28;20033;-74
2021/12/12 07:03:03;;;;;;;36.13;19.85;;;;;;;;;;5042468;28;20033;-74
2021/12/12 07:05:30;;;;;;;35.45;20.40;;;;;;;;;;5050281;28;20036;-74
2021/12/12 07:07:57;;;;;;;32.53;18.48;;;;;;;;;;5045186;28;20424;-74
2021/12/12 07:10:25;;;;;;;35.28;19.58;;;;;;;;;;5031562;28;20090;-74
2021/12/12 07:12:55;;;;;;;32.05;18.92;;;;;;;;;;5043215;28;20485;-74
2021/12/12 07:15:24;;;;;;;36.78;18.98;;;;;;;;;;5051316;28;20060;-75
2021/12/12 07:17:53;;;;;;;36.40;19.58;;;;;;;;;;5043593;28;20037;-74
2021/12/12 07:20:19;;;;;;;38.40;20.67;;;;;;;;;;5038138;28;20172;-73
2021/12/12 07:22:45;;;;;;;37.53;20.52;;;;;;;;;;5044176;28;20055;-73
2021/12/12 07:25:11;;;;;;;36.97;21.23;;;;;;;;;;5046059;28;20029;-74
2021/12/12 07:27:37;;;;;;;40.88;21.70;;;;;;;;;;5045184;28;20032;-73
2021/12/12 07:30:04;;;;;;;53.67;25.02;;;;;;;;;;5028076;28;20033;-73
2021/12/12 07:32:30;;;;;;;43.55;20.63;;;;;;;;;;5043595;28;20482;-76
2021/12/12 07:34:56;;;;;;;48.38;22.52;;;;;;;;;;5038517;28;20040;-76
2021/12/12 07:37:22;;;;;;;45.05;23.13;;;;;;;;;;5040198;28;20156;-74
2021/12/12 07:39:50;;;;;;;46.15;21.83;;;;;;;;;;5042394;28;20104;-74
2021/12/12 07:42:17;;;;;;;48.15;23.10;;;;;;;;;;5019430;28;20059;-73
2021/12/12 07:44:44;;;;;;;44.38;21.30;;;;;;;;;;5042274;28;20479;-73
2021/12/12 07:47:11;;;;;;;52.65;23.38;;;;;;;;;;5043649;28;20029;-74
2021/12/12 07:49:43;;;;;;;48.70;22.17;;;;;;;;;;5038365;28;20036;-74
2021/12/12 07:52:17;;;;;;;55.25;24.58;;;;;;;;;;5045873;28;20678;-74
2021/12/12 07:54:49;;;;;;;60.03;23.98;;;;;;;;;;5037363;28;20056;-75
2021/12/12 07:57:16;;;;;;;54.72;24.30;;;;;;;;;;5040756;28;20032;-74
2021/12/12 07:59:42;;;;;;;55.63;25.33;;;;;;;;;;5029303;28;20054;-71
2021/12/12 08:02:10;;;;;;;65.28;25.77;;;;;;;;;;5040293;28;20119;-74
2021/12/12 08:04:36;;;;;;;105.07;27.77;;;;;;;;;;5048695;28;20114;-75
2021/12/12 08:07:03;;;;;;;66.15;25.85;;;;;;;;;;5041819;28;20033;-73
2021/12/12 08:09:30;;;;;;;58.97;24.30;;;;;;;;;;5037052;28;20529;-74
2021/12/12 08:11:56;;;;;;;68.55;25.88;;;;;;;;;;5030048;28;20044;-74
2021/12/12 08:14:25;;;;;;;67.88;28.52;;;;;;;;;;5046135;28;20037;-74
2021/12/12 08:16:51;;;;;;;54.35;23.77;;;;;;;;;;5042536;28;20037;-74
2021/12/12 08:19:18;;;;;;;58.95;24.13;;;;;;;;;;5042068;28;20120;-74
2021/12/12 08:21:44;;;;;;;58.08;23.83;;;;;;;;;;5053669;28;20033;-75
2021/12/12 08:24:12;;;;;;;62.72;24.25;;;7.20;99.90;;;;;;5047487;28;20032;-75
2021/12/12 08:26:40;;;;;;;69.15;25.60;;;;;;;;;;5045310;28;20036;-75
2021/12/12 08:29:07;;;;;;;73.55;27.35;;;;;;;;;;5046463;28;20478;-75
2021/12/12 08:31:33;;;;;;;72.45;27.55;;;;;;;;;;5041008;28;20029;-75
2021/12/12 08:33:59;;;;;;;72.47;27.85;;;;;;;;;;5041779;28;20505;-74
2021/12/12 08:36:25;;;;;;;70.90;27.08;;;;;;;;;;5037303;28;20491;-75
2021/12/12 08:38:51;;;;;;;79.35;28.50;;;;;;;;;;5028525;28;20056;-74
2021/12/12 08:41:18;;;;;;;73.70;27.00;;;;;;;;;;5042226;28;20029;-75
2021/12/12 08:43:44;;;;;;;79.93;27.35;;;;;;;;;;5043073;28;20082;-74
2021/12/12 08:46:13;;;;;;;76.82;27.33;;;;;;;;;;5043534;28;20052;-75
2021/12/12 08:48:41;;;;;;;77.45;28.13;;;;;;;;;;5041311;28;20043;-75
2021/12/12 08:51:10;;;;;;;73.53;27.98;;;;;;;;;;5044081;28;20034;-76
2021/12/12 08:53:36;;;;;;;84.95;30.58;;;;;;;;;;5047903;28;20483;-76
2021/12/12 08:56:03;;;;;;;85.53;29.27;;;7.60;99.90;;;;;;5042247;28;20034;-75
2021/12/12 08:58:31;;;;;;;84.15;30.33;;;;;;;;;;5023270;28;20494;-77
2021/12/12 09:00:57;;;;;;;107.38;31.45;;;;;;;;;;5028463;28;20116;-77
2021/12/12 09:03:25;;;;;;;89.93;31.05;;;;;;;;;;5048667;28;20570;-77
2021/12/12 09:05:52;;;;;;;103.45;31.10;;;7.70;99.90;;;;;;5046738;28;20033;-76
2021/12/12 09:08:34;;;;;;;97.82;30.08;;;7.50;99.90;;;;;;5026461;28;20033;-76
2021/12/12 09:11:04;;;;;;;87.75;30.35;;;;;;;;;;5044607;28;20025;-76
2021/12/12 09:13:37;;;;;;;89.22;30.33;;;7.80;99.90;;;;;;5049060;28;20398;-76
2021/12/12 09:16:13;;;;;;;98.07;31.17;;;;;;;;;;5043731;28;20040;-76
2021/12/12 09:18:41;;;;;;;91.63;30.40;;;;;;;;;;5042107;28;20056;-77
2021/12/12 09:21:23;;;;;;;102.32;32.95;;;;;;;;;;5041830;28;20149;-76
2021/12/12 09:24:01;;;;;;;97.07;31.10;;;;;;;;;;5021941;28;20139;-76
2021/12/12 09:26:27;;;;;;;90.60;29.33;;;;;;;;;;5037110;28;20037;-77
2021/12/12 09:28:57;;;;;;;103.38;31.42;;;;;;;;;;5038119;28;20495;-76
2021/12/12 09:31:32;;;;;;;95.28;30.88;;;;;;;;;;5045616;28;20430;-76
2021/12/12 09:34:05;;;;;;;93.78;30.65;;;;;;;;;;5042983;28;20045;-76
2021/12/12 09:36:42;;;;;;;99.53;30.77;;;;;;;;;;5031132;28;20039;-76
2021/12/12 09:39:11;;;;;;;88.85;34.00;;;;;;;;;;5047275;28;20490;-77
2021/12/12 09:41:55;;;;;;;120.85;45.80;;;;;;;;;;5042096;28;20032;-78
2021/12/12 09:44:40;;;;;;;102.78;30.45;;;;;;;;;;5028061;28;20037;-76
2021/12/12 09:47:56;;;;;;;76.93;28.27;;;;;;;;;;5041670;28;20036;-76
2021/12/12 09:53:05;;;;;;;92.45;30.30;;;;;;;;;;5041255;28;20112;-77
2021/12/12 09:55:43;;;;;;;95.93;38.28;;;8.10;99.90;;;;;;5042913;28;20043;-77
2021/12/12 09:58:29;;;;;;;97.30;31.00;;;8.10;99.90;;;;;;5048689;28;20036;-77
2021/12/12 10:01:03;;;;;;;90.97;30.50;;;8.20;99.90;;;;;;4985092;28;20055;-78
2021/12/12 10:03:47;;;;;;;92.50;29.45;;;;;;;;;;5035219;28;20091;-76
2021/12/12 10:06:23;;;;;;;80.38;28.10;;;;;;;;;;5041302;28;20021;-76
2021/12/12 10:09:05;;;;;;;94.78;31.20;;;;;;;;;;5041473;28;20021;-76
2021/12/12 10:11:34;;;;;;;93.40;29.48;;;;;;;;;;5046374;28;20152;-76
2021/12/12 10:14:01;;;;;;;73.97;27.75;;;;;;;;;;5029657;28;20036;-76
2021/12/12 10:16:33;;;;;;;90.20;28.60;;;;;;;;;;5049315;28;20028;-75
2021/12/12 10:19:30;;;;;;;85.30;29.45;;;8.10;99.90;;;;;;5041450;28;20116;-75
2021/12/12 10:22:02;;;;;;;88.65;28.25;;;;;;;;;;5013486;28;20060;-75
2021/12/12 10:24:28;;;;;;;76.82;27.77;;;;;;;;;;5040759;28;20078;-74
2021/12/12 10:27:08;;;;;;;81.90;27.38;;;8.30;99.90;;;;;;5046924;28;20021;-74
2021/12/12 10:30:28;;;;;;;87.53;29.25;;;8.50;99.90;;;;;;5027221;28;20029;-74
2021/12/12 10:32:54;;;;;;;83.65;30.48;;;;;;;;;;4967517;28;20050;-75
2021/12/12 10:35:39;;;;;;;68.18;25.17;;;8.40;99.90;;;;;;5032187;28;20037;-75
2021/12/12 10:38:08;;;;;;;83.25;29.63;;;;;;;;;;5044612;28;20487;-75
2021/12/12 10:40:37;;;;;;;79.38;28.38;;;;;;;;;;5042321;28;20480;-75
2021/12/12 10:43:08;;;;;;;77.72;28.40;;;8.60;99.90;;;;;;5043842;28;20021;-75
2021/12/12 10:45:40;;;;;;;80.55;26.67;;;;;;;;;;5052297;28;20037;-75
2021/12/12 10:48:08;;;;;;;75.97;27.27;;;;;;;;;;5040741;28;20120;-75
2021/12/12 10:50:41;;;;;;;79.65;25.98;;;;;;;;;;5039931;28;20403;-75
2021/12/12 10:53:09;;;;;;;76.68;28.77;;;;;;;;;;5041267;28;20029;-75
2021/12/12 10:55:38;;;;;;;75.90;28.35;;;;;;;;;;5044641;28;20735;-75
2021/12/12 10:58:04;;;;;;;78.45;27.30;;;;;;;;;;5046664;28;20091;-76
2021/12/12 11:00:32;;;;;;;71.82;26.02;;;;;;;;;;5045551;28;20041;-79
2021/12/12 11:03:11;;;;;;;70.25;25.52;;;;;;;;;;5035739;28;20038;-75
2021/12/12 11:05:44;;;;;;;89.82;39.05;;;8.70;99.90;;;;;;5038040;28;20036;-76
2021/12/12 11:08:10;;;;;;;66.53;25.02;;;;;;;;;;5046022;28;20078;-75
2021/12/12 11:10:39;;;;;;;59.63;22.70;;;8.70;99.90;;;;;;5043403;28;20021;-75
2021/12/12 11:13:09;;;;;;;60.45;23.27;;;;;;;;;;5048577;28;20039;-77
2021/12/12 11:16:05;;;;;;;53.13;21.20;;;8.80;99.90;;;;;;5045642;28;20437;-76
2021/12/12 11:18:44;;;;;;;56.70;21.85;;;;;;;;;;5023652;28;20421;-75
2021/12/12 11:21:15;;;;;;;46.95;20.83;;;9.00;99.90;;;;;;5048857;28;20041;-76
2021/12/12 11:23:50;;;;;;;51.15;21.73;;;;;;;;;;5046393;28;20036;-76
2021/12/12 11:26:20;;;;;;;44.28;20.10;;;;;;;;;;5053015;28;20486;-76
2021/12/12 11:28:59;;;;;;;56.83;21.48;;;8.80;99.90;;;;;;5047871;28;20028;-77
2021/12/12 11:31:37;;;;;;;54.00;20.83;;;9.10;99.90;;;;;;5048678;28;20035;-77
2021/12/12 11:34:05;;;;;;;50.13;20.88;;;8.90;99.90;;;;;;5047828;28;20032;-77
2021/12/12 11:36:35;;;;;;;42.78;18.92;;;;;;;;;;5048745;28;20052;-77
2021/12/12 11:39:10;;;;;;;51.33;22.27;;;;;;;;;;5048199;28;20037;-77
2021/12/12 11:41:48;;;;;;;50.47;20.45;;;;;;;;;;5047642;28;20510;-77
2021/12/12 11:44:20;;;;;;;50.90;20.10;;;;;;;;;;5053668;28;20104;-77
2021/12/12 11:46:50;;;;;;;55.08;21.42;;;;;;;;;;5047944;28;20029;-77
2021/12/12 11:49:22;;;;;;;59.38;21.20;;;;;;;;;;5052965;28;20036;-77
2021/12/12 11:52:02;;;;;;;51.00;21.43;;;;;;;;;;5051424;28;20032;-76
2021/12/12 11:54:31;;;;;;;56.42;20.75;;;;;;;;;;5050610;28;20287;-77
2021/12/12 11:57:26;;;;;;;51.50;19.60;;;9.20;99.90;;;;;;5049072;28;20024;-80
2021/12/12 11:59:59;;;;;;;51.80;21.23;;;;;;;;;;5048158;28;20041;-80
2021/12/12 12:02:44;;;;;;;55.33;21.25;;;;;;;;;;5044630;28;20038;-78
2021/12/12 12:05:48;;;;;;;51.53;18.95;;;9.10;99.90;;;;;;5049231;28;20029;-77
2021/12/12 12:08:14;;;;;;;43.85;17.67;;;;;;;;;;5040457;28;20037;-78
2021/12/12 12:11:11;;;;;;;47.67;19.13;;;9.30;99.90;;;;;;5040785;28;20404;-74
2021/12/12 12:14:14;;;;;;;46.33;18.75;;;9.20;99.90;;;;;;5039383;28;20433;-74
2021/12/12 12:17:00;;;;;;;43.40;19.17;;;;;;;;;;4999024;28;20360;-74
2021/12/12 12:19:26;;;;;;;47.28;19.33;;;;;;;;;;5045161;28;20086;-74
2021/12/12 12:22:03;;;;;;;47.70;19.13;;;;;;;;;;5047741;28;20033;-74
2021/12/12 12:24:42;;;;;;;49.90;22.52;;;9.10;99.90;;;;;;5045252;28;20044;-74
2021/12/12 12:27:11;;;;;;;46.70;19.60;;;;;;;;;;5046757;28;20532;-74
2021/12/12 12:29:52;;;;;;;44.88;18.52;;;;;;;;;;5049176;28;20025;-73
2021/12/12 12:32:18;;;;;;;59.28;24.75;;;;;;;;;;5043182;28;20029;-74
2021/12/12 12:34:50;;;;;;;44.42;18.55;;;9.10;99.90;;;;;;5035898;28;20035;-73
2021/12/12 12:37:36;;;;;;;48.30;21.27;;;;;;;;;;5040904;28;20052;-73
2021/12/12 12:40:25;;;;;;;65.90;33.38;;;;;;;;;;5044940;28;20303;-74
2021/12/12 12:43:10;;;;;;;64.15;31.45;;;;;;;;;;5008600;28;20061;-74
2021/12/12 12:46:13;;;;;;;85.75;46.92;;;9.40;99.90;;;;;;5047402;28;20028;-74
2021/12/12 12:48:44;;;;;;;43.65;18.38;;;;;;;;;;5038943;28;20017;-74
2021/12/12 12:51:29;;;;;;;38.97;16.83;;;;;;;;;;5048387;28;20033;-75
2021/12/12 12:54:23;;;;;;;47.38;17.05;;;9.50;99.90;;;;;;5044105;28;20098;-74
2021/12/12 12:56:58;;;;;;;40.47;16.55;;;;;;;;;;5046050;28;20060;-74
2021/12/12 12:59:31;;;;;;;44.17;16.42;;;;;;;;;;5042845;28;20076;-75
2021/12/12 13:02:12;;;;;;;45.10;17.15;;;;;;;;;;5044278;28;20029;-74
2021/12/12 13:05:03;;;;;;;39.92;17.17;;;;;;;;;;5041948;28;20435;-74
2021/12/12 13:07:49;;;;;;;38.20;16.40;;;;;;;;;;5043733;28;20068;-74
2021/12/12 13:10:17;;;;;;;37.90;16.52;;;;;;;;;;5051717;28;20087;-74
2021/12/12 13:13:06;;;;;;;36.25;16.00;;;9.50;99.90;;;;;;5040843;28;20029;-73
2021/12/12 13:15:44;;;;;;;43.83;17.05;;;;;;;;;;5027859;28;20033;-74
2021/12/12 13:18:21;;;;;;;41.47;16.77;;;;;;;;;;5044160;28;20031;-74
2021/12/12 13:20:50;;;;;;;42.13;16.17;;;;;;;;;;5038803;28;20043;-73
2021/12/12 13:23:21;;;;;;;41.03;15.93;;;;;;;;;;5051584;28;20075;-74
2021/12/12 13:25:50;;;;;;;36.10;16.48;;;;;;;;;;5043481;28;20444;-74
2021/12/12 13:28:30;;;;;;;45.10;15.65;;;;;;;;;;5045369;28;20100;-74
2021/12/12 13:31:04;;;;;;;40.25;16.45;;;;;;;;;;5040489;28;20032;-74
2021/12/12 13:33:43;;;;;;;37.78;16.33;;;;;;;;;;5039225;28;20251;-74
2021/12/12 13:36:09;;;;;;;43.72;17.65;;;;;;;;;;5047545;28;20032;-74
2021/12/12 13:39:06;;;;;;;36.95;15.75;;;9.50;99.90;;;;;;5029238;28;20441;-74
2021/12/12 13:41:50;;;;;;;36.95;15.60;;;;;;;;;;5048657;28;20517;-74
2021/12/12 13:44:34;;;;;;;35.25;14.70;;;9.50;99.90;;;;;;5041352;28;20029;-74
2021/12/12 13:47:18;;;;;;;33.05;14.77;;;;;;;;;;5045119;28;20033;-74
2021/12/12 13:49:47;;;;;;;27.25;13.65;;;;;;;;;;5043702;28;20032;-74
2021/12/12 13:52:26;;;;;;;27.75;13.60;;;;;;;;;;5048360;28;20131;-74
2021/12/12 13:54:58;;;;;;;29.42;13.57;;;;;;;;;;5052002;28;20445;-74
2021/12/12 13:57:37;;;;;;;25.58;12.85;;;9.30;99.90;;;;;;5027955;28;20028;-73
2021/12/12 14:00:15;;;;;;;23.67;12.60;;;;;;;;;;5046912;28;20510;-74
2021/12/12 14:02:46;;;;;;;28.77;11.82;;;9.50;99.90;;;;;;5039762;28;20534;-74
2021/12/12 14:05:18;;;;;;;25.50;12.55;;;;;;;;;;5035156;28;20535;-75
2021/12/12 14:07:50;;;;;;;25.45;12.25;;;;;;;;;;5042489;28;20112;-74
2021/12/12 14:10:25;;;;;;;22.17;12.20;;;;;;;;;;5044010;28;20021;-74
2021/12/12 14:12:58;;;;;;;22.88;12.57;;;9.50;99.90;;;;;;5045307;28;20052;-75
2021/12/12 14:15:27;;;;;;;25.33;14.70;;;;;;;;;;5038799;28;20040;-76
2021/12/12 14:17:56;;;;;;;40.50;24.55;;;9.80;99.90;;;;;;5043390;28;20589;-77
2021/12/12 14:20:31;;;;;;;31.35;12.57;;;9.70;99.90;;;;;;5037172;28;20037;-74
2021/12/12 14:22:58;;;;;;;22.73;11.35;;;;;;;;;;5040030;28;20039;-74
2021/12/12 14:25:25;;;;;;;21.30;11.30;;;;;;;;;;5032368;28;20250;-75
2021/12/12 14:27:52;;;;;;;22.88;11.77;;;;;;;;;;5036951;28;20017;-74
2021/12/12 14:30:20;;;;;;;24.88;12.77;;;9.60;99.90;;;;;;5043264;28;20033;-74
2021/12/12 14:33:14;;;;;;;27.90;12.13;;;9.70;99.90;;;;;;5045135;28;20029;-74
2021/12/12 14:35:56;;;;;;;20.52;10.70;;;9.60;99.90;;;;;;5036401;28;20495;-74
2021/12/12 14:38:23;;;;;;;27.38;11.27;;;9.90;99.90;;;;;;5024796;28;20112;-73
2021/12/12 14:40:51;;;;;;;15.93;8.80;;;;;;;;;;5035611;28;20546;-73
2021/12/12 14:43:22;;;;;;;16.52;9.05;;;;;;;;;;5042598;28;20029;-75
2021/12/12 14:45:55;;;;;;;18.67;10.60;;;9.50;99.90;;;;;;5054979;28;20379;-75
2021/12/12 14:48:27;;;;;;;18.63;9.75;;;;;;;;;;5043632;28;20498;-75